createdAt,value
2023-05-02T00:00:25.439Z,11.92
2023-05-02T00:03:11.659Z,11.89
2023-05-02T00:05:57.937Z,11.89
2023-05-02T00:08:45.502Z,11.88
2023-05-02T00:11:31.978Z,11.86
2023-05-02T00:14:17.699Z,11.78
2023-05-02T00:17:03.535Z,11.78
2023-05-02T00:19:49.774Z,11.74
2023-05-02T00:22:36.117Z,11.74
2023-05-02T00:25:23.678Z,11.69
2023-05-02T00:28:09.977Z,11.72
2023-05-02T00:30:55.953Z,11.70
2023-05-02T00:33:42.024Z,11.71
2023-05-02T00:36:28.414Z,11.72
2023-05-02T00:39:14.201Z,11.72
2023-05-02T00:42:01.877Z,11.73
2023-05-02T00:44:47.839Z,11.74
2023-05-02T00:47:34.043Z,11.76
2023-05-02T00:50:20.739Z,11.75
2023-05-02T00:53:07.097Z,11.75
2023-05-02T00:55:54.232Z,11.76
2023-05-02T00:58:41.513Z,11.78
2023-05-02T01:01:31.026Z,11.77
2023-05-02T01:04:21.568Z,11.77
2023-05-02T01:07:11.423Z,11.76
2023-05-02T01:09:59.131Z,11.75
2023-05-02T01:12:46.784Z,11.75
2023-05-02T01:15:34.212Z,11.75
2023-05-02T01:18:20.090Z,11.74
2023-05-02T01:21:07.305Z,11.74
2023-05-02T01:23:54.495Z,11.75
2023-05-02T01:26:47.026Z,11.76
2023-05-02T01:29:34.300Z,11.79
2023-05-02T01:32:20.407Z,11.78
2023-05-02T01:35:06.765Z,11.75
2023-05-02T01:37:53.091Z,11.74
2023-05-02T01:40:38.955Z,11.74
2023-05-02T01:43:24.760Z,11.75
2023-05-02T01:46:13.577Z,11.70
2023-05-02T01:48:59.721Z,11.73
2023-05-02T01:51:47.191Z,11.71
2023-05-02T01:54:34.617Z,11.66
2023-05-02T01:57:21.332Z,11.68
2023-05-02T02:00:09.630Z,11.64
2023-05-02T02:03:03.183Z,11.66
2023-05-02T02:05:48.956Z,11.64
2023-05-02T02:08:34.775Z,11.62
2023-05-02T02:11:24.716Z,11.63
2023-05-02T02:14:13.613Z,11.55
2023-05-02T02:17:00.007Z,11.55
2023-05-02T02:19:47.482Z,11.55
2023-05-02T02:22:33.321Z,11.54
2023-05-02T02:25:20.880Z,11.54
2023-05-02T02:28:07.709Z,11.47
2023-05-02T02:30:53.702Z,11.49
2023-05-02T02:33:39.347Z,11.49
2023-05-02T02:36:28.296Z,11.51
2023-05-02T02:39:17.612Z,11.52
2023-05-02T02:42:04.602Z,11.52
2023-05-02T02:44:53.658Z,11.50
2023-05-02T02:47:42.754Z,11.47
2023-05-02T02:50:31.350Z,11.50
2023-05-02T02:53:18.810Z,11.46
2023-05-02T02:56:06.316Z,11.48
2023-05-02T02:59:06.375Z,11.46
2023-05-02T03:01:54.425Z,11.47
2023-05-02T03:04:42.855Z,11.47
2023-05-02T03:07:28.797Z,11.49
2023-05-02T03:10:17.435Z,11.50
2023-05-02T03:13:03.300Z,11.50
2023-05-02T03:16:08.643Z,11.48
2023-05-02T03:18:55.018Z,11.47
2023-05-02T03:21:43.438Z,11.49
2023-05-02T03:24:34.749Z,11.49
2023-05-02T03:27:23.339Z,11.52
2023-05-02T03:30:10.133Z,11.49
2023-05-02T03:32:57.155Z,11.48
2023-05-02T03:35:43.339Z,11.53
2023-05-02T03:38:31.161Z,11.52
2023-05-02T03:41:21.154Z,11.54
2023-05-02T03:44:14.656Z,11.55
2023-05-02T03:47:01.207Z,11.56
2023-05-02T03:49:48.662Z,11.56
2023-05-02T03:52:35.557Z,11.55
2023-05-02T03:55:22.513Z,11.55
2023-05-02T03:58:08.795Z,11.57
2023-05-02T04:00:55.942Z,11.57
2023-05-02T04:03:43.772Z,11.56
2023-05-02T04:06:32.009Z,11.56
2023-05-02T04:09:25.301Z,11.53
2023-05-02T04:12:19.357Z,11.50
2023-05-02T04:15:09.358Z,11.49
2023-05-02T04:17:57.249Z,11.47
2023-05-02T04:20:44.032Z,11.46
2023-05-02T04:23:30.689Z,11.47
2023-05-02T04:26:19.879Z,11.47
2023-05-02T04:29:13.426Z,11.43
2023-05-02T04:31:59.556Z,11.42
2023-05-02T04:34:48.575Z,11.42
2023-05-02T04:37:35.556Z,11.40
2023-05-02T04:40:21.919Z,11.38
2023-05-02T04:43:12.682Z,11.34
2023-05-02T04:46:03.528Z,11.32
2023-05-02T04:48:53.224Z,11.26
2023-05-02T04:51:40.404Z,11.19
2023-05-02T04:54:27.950Z,11.15
2023-05-02T04:57:13.995Z,11.12
2023-05-02T05:00:05.571Z,10.97
2023-05-02T05:02:51.809Z,10.87
2023-05-02T05:05:38.108Z,10.77
2023-05-02T05:08:28.465Z,10.65
2023-05-02T05:11:15.873Z,10.47
2023-05-02T05:14:03.984Z,10.49
2023-05-02T05:16:51.872Z,10.38
2023-05-02T05:19:38.505Z,10.25
2023-05-02T05:22:25.845Z,10.25
2023-05-02T05:25:13.175Z,10.27
2023-05-02T05:28:00.376Z,10.16
2023-05-02T05:30:47.278Z,10.14
2023-05-02T05:33:37.885Z,10.04
2023-05-02T05:36:25.532Z,9.94
2023-05-02T05:39:11.873Z,9.84
2023-05-02T05:42:00.695Z,9.62
2023-05-02T05:44:47.014Z,9.53
2023-05-02T05:47:34.662Z,9.42
2023-05-02T05:50:21.433Z,9.49
2023-05-02T05:53:07.727Z,9.53
2023-05-02T05:55:54.978Z,9.51
2023-05-02T05:58:44.069Z,9.58
2023-05-02T06:01:32.331Z,9.49
2023-05-02T06:04:18.390Z,9.50
2023-05-02T06:07:07.770Z,9.49
2023-05-02T06:09:53.425Z,9.50
2023-05-02T06:12:39.811Z,9.59
2023-05-02T06:15:27.922Z,9.61
2023-05-02T06:18:13.833Z,9.56
2023-05-02T06:21:04.388Z,9.60
2023-05-02T06:23:50.646Z,9.58
2023-05-02T06:26:36.305Z,9.62
2023-05-02T06:29:22.129Z,9.62
2023-05-02T06:32:10.029Z,9.65
2023-05-02T06:34:55.940Z,9.63
2023-05-02T06:37:42.069Z,9.67
2023-05-02T06:40:27.959Z,9.68
2023-05-02T06:43:13.912Z,9.75
2023-05-02T06:45:59.730Z,9.83
2023-05-02T06:48:46.921Z,9.90
2023-05-02T06:51:32.660Z,9.98
2023-05-02T06:54:18.906Z,10.05
2023-05-02T06:57:04.769Z,10.16
2023-05-02T06:59:50.577Z,10.20
2023-05-02T07:02:36.661Z,10.24
2023-05-02T07:05:23.834Z,10.38
2023-05-02T07:08:10.334Z,10.38
2023-05-02T07:10:56.212Z,10.45
2023-05-02T07:13:42.378Z,10.48
2023-05-02T07:16:28.692Z,10.51
2023-05-02T07:19:14.681Z,10.51
2023-05-02T07:22:01.597Z,10.56
2023-05-02T07:24:47.494Z,10.65
2023-05-02T07:27:33.205Z,10.73
2023-05-02T07:30:18.921Z,10.80
2023-05-02T07:33:04.870Z,10.80
2023-05-02T07:35:50.523Z,10.81
2023-05-02T07:38:37.621Z,10.78
2023-05-02T07:41:23.528Z,10.76
2023-05-02T07:44:09.296Z,10.77
2023-05-02T07:46:55.357Z,10.77
2023-05-02T07:49:41.500Z,10.73
2023-05-02T07:52:27.233Z,10.75
2023-05-02T07:55:15.120Z,10.76
2023-05-02T07:58:01.378Z,10.79
2023-05-02T08:00:47.537Z,10.83
2023-05-02T08:03:33.669Z,10.88
2023-05-02T08:06:20.014Z,10.95
2023-05-02T08:09:05.794Z,11.08
2023-05-02T08:11:53.304Z,11.16
2023-05-02T08:14:39.171Z,11.28
2023-05-02T08:17:25.051Z,11.38
2023-05-02T08:20:11.347Z,11.41
2023-05-02T08:22:59.863Z,11.44
2023-05-02T08:25:46.334Z,11.50
2023-05-02T08:28:33.560Z,11.46
2023-05-02T08:31:19.627Z,11.37
2023-05-02T08:34:06.180Z,11.38
2023-05-02T08:36:51.989Z,11.32
2023-05-02T08:39:37.788Z,11.16
2023-05-02T08:42:23.585Z,11.05
2023-05-02T08:45:11.552Z,11.00
2023-05-02T08:47:58.469Z,11.00
2023-05-02T08:50:46.625Z,10.95
2023-05-02T08:53:32.540Z,10.90
2023-05-02T08:56:18.182Z,10.95
2023-05-02T08:59:04.114Z,10.89
2023-05-02T09:01:52.654Z,10.90
2023-05-02T09:04:38.823Z,10.94
2023-05-02T09:07:25.033Z,10.93
2023-05-02T09:10:11.333Z,10.95
2023-05-02T09:12:57.230Z,11.02
2023-05-02T09:15:43.101Z,11.06
2023-05-02T09:18:31.646Z,11.16
2023-05-02T09:21:20.737Z,11.09
2023-05-02T09:24:16.278Z,11.10
2023-05-02T09:27:03.732Z,11.28
2023-05-02T09:29:49.872Z,11.33
2023-05-02T09:32:45.560Z,11.39
2023-05-02T09:35:33.144Z,11.58
2023-05-02T09:38:20.363Z,11.62
2023-05-02T09:41:06.405Z,11.74
2023-05-02T09:43:55.953Z,11.83
2023-05-02T09:46:42.422Z,11.82
2023-05-02T09:49:41.050Z,11.86
2023-05-02T09:52:28.444Z,12.01
2023-05-02T09:55:21.296Z,11.99
2023-05-02T09:58:07.632Z,12.21
2023-05-02T10:00:53.505Z,12.36
2023-05-02T10:03:39.530Z,12.45
2023-05-02T10:06:25.973Z,12.61
2023-05-02T10:09:16.655Z,12.70
2023-05-02T10:12:07.921Z,12.79
2023-05-02T10:14:55.607Z,12.83
2023-05-02T10:17:42.908Z,12.94
2023-05-02T10:20:31.443Z,13.02
2023-05-02T10:23:17.500Z,13.10
2023-05-02T10:26:04.691Z,13.15
2023-05-02T10:28:50.911Z,13.25
2023-05-02T10:31:37.619Z,13.30
2023-05-02T10:34:23.637Z,13.43
2023-05-02T10:37:09.483Z,13.52
2023-05-02T10:39:55.524Z,13.64
2023-05-02T10:42:45.489Z,13.72
2023-05-02T10:45:32.322Z,13.75
2023-05-02T10:48:18.680Z,13.75
2023-05-02T10:51:05.377Z,13.91
2023-05-02T10:53:51.287Z,14.00
2023-05-02T10:56:37.442Z,14.04
2023-05-02T10:59:31.310Z,14.14
2023-05-02T11:02:37.869Z,14.40
2023-05-02T11:05:24.176Z,14.60
2023-05-02T11:08:28.952Z,14.59
2023-05-02T11:11:33.954Z,14.72
2023-05-02T11:14:34.807Z,14.77
2023-05-02T11:17:22.491Z,14.95
2023-05-02T11:20:29.579Z,15.04
2023-05-02T11:23:28.025Z,14.98
2023-05-02T11:26:22.012Z,14.91
2023-05-02T11:29:07.716Z,14.98
2023-05-02T11:31:54.358Z,15.09
2023-05-02T11:34:45.413Z,15.18
2023-05-02T11:37:31.573Z,15.32
2023-05-02T11:40:18.090Z,15.38
2023-05-02T11:43:12.989Z,15.47
2023-05-02T11:46:00.093Z,15.90
2023-05-02T11:48:46.181Z,16.29
2023-05-02T11:51:33.213Z,16.42
2023-05-02T11:54:19.739Z,16.32
2023-05-02T11:57:05.607Z,16.61
2023-05-02T11:59:52.223Z,16.83
2023-05-02T12:02:38.691Z,17.05
2023-05-02T12:05:29.277Z,17.22
2023-05-02T12:08:20.305Z,17.24
2023-05-02T12:11:06.643Z,17.70
2023-05-02T12:13:52.653Z,18.11
2023-05-02T12:16:38.669Z,18.58
2023-05-02T12:19:24.631Z,19.04
2023-05-02T12:22:10.772Z,19.07
2023-05-02T12:24:58.058Z,19.02
2023-05-02T12:27:43.850Z,19.05
2023-05-02T12:30:30.015Z,18.98
2023-05-02T12:33:16.649Z,18.86
2023-05-02T12:36:06.932Z,18.62
2023-05-02T12:38:53.967Z,18.48
2023-05-02T12:41:45.826Z,18.31
2023-05-02T12:44:38.625Z,18.14
2023-05-02T12:47:25.379Z,18.05
2023-05-02T12:50:11.618Z,17.92
2023-05-02T12:52:59.871Z,18.04
2023-05-02T12:55:46.901Z,17.89
2023-05-02T12:58:39.841Z,18.00
2023-05-02T13:01:25.648Z,17.97
2023-05-02T13:04:11.433Z,18.13
2023-05-02T13:06:57.393Z,18.32
2023-05-02T13:09:43.639Z,18.29
2023-05-02T13:12:29.649Z,18.19
2023-05-02T13:15:16.869Z,17.95
2023-05-02T13:18:02.909Z,17.92
2023-05-02T13:20:48.872Z,17.91
2023-05-02T13:23:34.713Z,17.93
2023-05-02T13:26:21.097Z,17.84
2023-05-02T13:29:06.909Z,17.59
2023-05-02T13:31:53.863Z,17.37
2023-05-02T13:34:39.939Z,17.22
2023-05-02T13:37:26.509Z,17.18
2023-05-02T13:40:12.844Z,16.90
2023-05-02T13:42:59.095Z,16.72
2023-05-02T13:45:47.321Z,16.69
2023-05-02T13:48:34.770Z,16.70
2023-05-02T13:51:20.399Z,16.66
2023-05-02T13:54:06.240Z,16.41
2023-05-02T13:56:52.086Z,16.28
2023-05-02T13:59:37.733Z,16.22
2023-05-02T14:02:23.594Z,16.15
2023-05-02T14:05:11.123Z,16.04
2023-05-02T14:07:56.625Z,15.96
2023-05-02T14:10:42.559Z,16.00
2023-05-02T14:13:28.375Z,15.86
2023-05-02T14:16:14.090Z,15.88
2023-05-02T14:18:59.890Z,15.84
2023-05-02T14:21:47.449Z,15.77
2023-05-02T14:24:33.693Z,15.77
2023-05-02T14:27:19.554Z,15.82
2023-05-02T14:30:05.983Z,15.78
2023-05-02T14:32:52.280Z,15.78
2023-05-02T14:35:38.113Z,15.73
2023-05-02T14:38:25.336Z,15.71
2023-05-02T14:41:11.532Z,15.64
2023-05-02T14:43:57.257Z,15.53
2023-05-02T14:46:43.083Z,15.33
2023-05-02T14:49:28.893Z,15.22
2023-05-02T14:52:14.647Z,15.08
2023-05-02T14:55:01.987Z,15.05
2023-05-02T14:57:48.305Z,15.00
2023-05-02T15:00:34.705Z,14.85
2023-05-02T15:03:20.803Z,14.86
2023-05-02T15:06:06.656Z,14.79
2023-05-02T15:08:52.898Z,14.66
2023-05-02T15:11:40.082Z,14.66
2023-05-02T15:14:26.064Z,14.60
2023-05-02T15:17:11.824Z,14.51
2023-05-02T15:19:58.572Z,14.47
2023-05-02T15:22:44.399Z,14.34
2023-05-02T15:25:31.465Z,14.34
2023-05-02T15:28:18.702Z,14.19
2023-05-02T15:31:04.654Z,14.03
2023-05-02T15:33:50.303Z,14.00
2023-05-02T15:36:37.332Z,13.99
2023-05-02T15:39:26.173Z,13.93
2023-05-02T15:42:12.183Z,13.79
2023-05-02T15:44:59.373Z,13.75
2023-05-02T15:47:45.379Z,13.70
2023-05-02T15:50:32.083Z,13.75
2023-05-02T15:53:18.021Z,13.69
2023-05-02T15:56:03.977Z,13.60
2023-05-02T15:58:50.014Z,13.53
2023-05-02T16:01:37.147Z,13.50
2023-05-02T16:04:22.956Z,13.42
2023-05-02T16:07:09.419Z,13.34
2023-05-02T16:09:55.213Z,13.33
2023-05-02T16:12:41.004Z,13.30
2023-05-02T16:15:27.268Z,13.28
2023-05-02T16:18:14.723Z,13.24
2023-05-02T16:21:01.261Z,13.14
2023-05-02T16:23:47.742Z,13.10
2023-05-02T16:26:33.642Z,12.99
2023-05-02T16:29:19.603Z,12.91
2023-05-02T16:32:05.928Z,12.85
2023-05-02T16:34:53.261Z,12.78
2023-05-02T16:37:39.931Z,12.69
2023-05-02T16:40:27.480Z,12.57
2023-05-02T16:43:14.377Z,12.43
2023-05-02T16:46:01.254Z,12.38
2023-05-02T16:48:47.195Z,12.33
2023-05-02T16:51:34.496Z,12.29
2023-05-02T16:54:20.172Z,12.28
2023-05-02T16:57:06.818Z,12.17
2023-05-02T16:59:52.887Z,12.10
2023-05-02T17:02:39.014Z,12.06
2023-05-02T17:05:26.137Z,11.97
2023-05-02T17:08:13.722Z,11.95
2023-05-02T17:10:59.820Z,11.94
2023-05-02T17:13:47.223Z,11.92
2023-05-02T17:16:33.406Z,11.87
2023-05-02T17:19:19.064Z,11.86
2023-05-02T17:22:05.460Z,-145.26
2023-05-02T17:24:54.089Z,-145.26
2023-05-02T17:27:41.070Z,-145.26
2023-05-02T17:30:27.495Z,-145.26
2023-05-02T17:33:13.238Z,-145.26
2023-05-02T17:35:59.466Z,-145.26
2023-05-02T17:38:45.660Z,-145.26
2023-05-02T17:41:32.603Z,-145.26
2023-05-02T17:44:18.434Z,-145.26
2023-05-02T17:47:04.788Z,-145.26
2023-05-02T17:49:51.249Z,-145.26
2023-05-02T17:52:37.223Z,-145.26
2023-05-02T17:55:23.036Z,-145.26
2023-05-02T17:58:09.991Z,-145.26
2023-05-02T18:00:56.022Z,-145.26
2023-05-02T18:03:42.439Z,-145.26
2023-05-02T18:06:29.010Z,-145.26
2023-05-02T18:09:15.380Z,-145.26
2023-05-02T18:12:04.105Z,-145.26
2023-05-02T18:14:52.461Z,-145.26
2023-05-02T18:17:38.518Z,-145.26
2023-05-02T18:20:24.771Z,-145.26
2023-05-02T18:23:10.564Z,-145.26
2023-05-02T18:25:56.604Z,-145.26
2023-05-02T18:28:44.467Z,-145.26
2023-05-02T18:31:31.966Z,-145.26
2023-05-02T18:34:18.072Z,-145.26
2023-05-02T18:37:04.213Z,-145.26
2023-05-02T18:39:50.382Z,-145.26
2023-05-02T18:42:36.462Z,-145.26
2023-05-02T18:45:22.297Z,-145.26
2023-05-02T18:48:09.448Z,-145.26
2023-05-02T18:50:56.391Z,-145.26
2023-05-02T18:53:42.414Z,-145.26
2023-05-02T18:56:28.454Z,-145.26
2023-05-02T18:59:14.780Z,-145.26
2023-05-02T19:02:00.849Z,-145.26
2023-05-02T19:04:47.985Z,-145.26
2023-05-02T19:07:35.588Z,-145.26
2023-05-02T19:10:22.324Z,-145.26
2023-05-02T19:13:08.438Z,-145.26
2023-05-02T19:15:54.689Z,-145.26
2023-05-02T19:18:40.713Z,-145.26
2023-05-02T19:21:28.345Z,-145.26
2023-05-02T19:24:14.275Z,-145.26
2023-05-02T19:27:00.359Z,-145.26
2023-05-02T19:29:46.273Z,-145.26
2023-05-02T19:32:32.014Z,-145.26
2023-05-02T19:35:18.093Z,-145.26
2023-05-02T19:38:05.488Z,-145.26
2023-05-02T19:40:51.277Z,-145.26
2023-05-02T19:43:37.024Z,-145.26
2023-05-02T19:46:23.140Z,-145.26
2023-05-02T19:49:09.459Z,-145.26
2023-05-02T19:51:55.571Z,-145.26
2023-05-02T19:54:43.231Z,-145.26
2023-05-02T19:57:29.392Z,-145.26
2023-05-02T20:00:15.493Z,-145.26
2023-05-02T20:03:01.480Z,-145.26
2023-05-02T20:05:47.391Z,-145.26
2023-05-02T20:08:33.106Z,-145.26
2023-05-02T20:11:20.356Z,-145.26
2023-05-02T20:14:06.189Z,-145.26
2023-05-02T20:16:52.169Z,-145.26
2023-05-02T20:19:38.432Z,-145.26
2023-05-02T20:22:24.231Z,-145.26
2023-05-02T20:25:11.484Z,-145.26
2023-05-02T20:27:58.463Z,-145.26
2023-05-02T20:30:44.175Z,-145.26
2023-05-02T20:33:43.814Z,-145.26
2023-05-02T20:36:31.017Z,-145.26
2023-05-02T20:39:20.247Z,-145.26
2023-05-02T20:42:06.477Z,-145.26
2023-05-02T20:44:57.360Z,-145.26
2023-05-02T20:47:43.480Z,-145.26
2023-05-02T20:50:29.845Z,-145.26
2023-05-02T20:53:15.786Z,-145.26
2023-05-02T20:56:01.573Z,-145.26
2023-05-02T20:58:47.269Z,-145.26
2023-05-02T21:01:34.316Z,-145.26
2023-05-02T21:04:20.517Z,-145.26
2023-05-02T21:07:06.355Z,-145.26
2023-05-02T21:09:52.133Z,-145.26
2023-05-02T21:12:38.049Z,-145.26
2023-05-02T21:15:24.134Z,-145.26
2023-05-02T21:18:11.366Z,-145.26
2023-05-02T21:20:57.383Z,-145.26
2023-05-02T21:23:43.205Z,-145.26
2023-05-02T21:26:29.003Z,-145.26
2023-05-02T21:29:14.938Z,-145.26
2023-05-02T21:32:00.899Z,-145.26
2023-05-02T21:34:48.605Z,-145.26
2023-05-02T21:37:34.454Z,-145.26
2023-05-02T21:40:20.202Z,-145.26
2023-05-02T21:43:06.314Z,-145.26
2023-05-02T21:45:52.718Z,-145.26
2023-05-02T21:48:38.714Z,-145.26
2023-05-02T21:51:25.840Z,-145.26
2023-05-02T21:54:11.756Z,-145.26
2023-05-02T21:56:57.439Z,-145.26
2023-05-02T21:59:43.165Z,-145.26
2023-05-02T22:02:28.929Z,-145.26
2023-05-02T22:05:15.569Z,-145.26
2023-05-02T22:08:03.080Z,-145.26
2023-05-02T22:10:48.873Z,-145.26
2023-05-02T22:13:34.689Z,-145.26
2023-05-02T22:16:21.331Z,-145.26
2023-05-02T22:19:07.391Z,-145.26
2023-05-02T22:21:55.558Z,-145.26
2023-05-02T22:24:42.981Z,-145.26
2023-05-02T22:27:28.694Z,-145.26
2023-05-02T22:30:14.489Z,-145.26
2023-05-02T22:33:00.519Z,-145.26
2023-05-02T22:35:46.499Z,-145.26
2023-05-02T22:38:32.350Z,-145.26
2023-05-02T22:41:20.007Z,-145.26
2023-05-02T22:44:06.163Z,-145.26
2023-05-02T22:46:52.833Z,-145.26
2023-05-02T22:49:40.533Z,-145.26
2023-05-02T22:52:27.125Z,-145.26
2023-05-02T22:55:12.815Z,-145.26
2023-05-02T22:57:59.914Z,-145.26
2023-05-02T23:00:46.037Z,-145.26
2023-05-02T23:03:31.984Z,-145.26
2023-05-02T23:06:18.144Z,-145.26
2023-05-02T23:09:04.327Z,-145.26
2023-05-02T23:11:50.159Z,-145.26
2023-05-02T23:14:37.211Z,-145.26
2023-05-02T23:17:23.587Z,-145.26
2023-05-02T23:20:10.764Z,-145.26
2023-05-02T23:22:56.956Z,-145.26
2023-05-02T23:25:42.738Z,-145.26
2023-05-02T23:28:28.709Z,-145.26
2023-05-02T23:31:15.890Z,-145.26
2023-05-02T23:34:02.084Z,-145.26
2023-05-02T23:36:47.953Z,-145.26
2023-05-02T23:39:33.739Z,-145.26
2023-05-02T23:42:19.533Z,-145.26
2023-05-02T23:45:05.740Z,-145.26
2023-05-02T23:47:52.802Z,-145.26
2023-05-02T23:50:38.626Z,-145.26
2023-05-02T23:53:24.914Z,-145.26
2023-05-02T23:56:11.061Z,-145.26
2023-05-02T23:58:57.042Z,-145.26
